AAL1729 KMHT-KPHL
Flight info
| Callsign | AAL1729 |
|---|---|
| Flight time | 1h 7m |
| Altitude | 36000 |
| Route | PPORT4 CCC MANTA Q439 BRIGS JIIMS4 |
| Aircraft | A321/M-SDE3FGHIRWY/LB1 |
Departure
| Time | 2026-04-20 17:53 |
|---|---|
| Airport | Manchester-Boston Regional Airport (KMHT) |
Arrival
| Time | 2026-04-20 19:00 |
|---|---|
| Airport | Philadelphia International Airport (KPHL) |
| Time | Latitude | Longitude | Altitude | Speed | Heading |
|---|---|---|---|---|---|
| 2026-04-20 17:42 | 42.92673 | -71.43879 | 227 ft | 0 kts | 336° |
| 2026-04-20 17:43 | 42.92671 | -71.43878 | 227 ft | 1 kts | 337° |
| 2026-04-20 17:43 | 42.92657 | -71.43870 | 227 ft | 2 kts | 336° |
| 2026-04-20 17:43 | 42.92643 | -71.43861 | 226 ft | 2 kts | 350° |
| 2026-04-20 17:43 | 42.92629 | -71.43863 | 226 ft | 2 kts | 21° |
| 2026-04-20 17:44 | 42.92616 | -71.43874 | 226 ft | 2 kts | 50° |
| 2026-04-20 17:44 | 42.92611 | -71.43883 | 226 ft | 1 kts | 67° |
| 2026-04-20 17:44 | 42.92609 | -71.43891 | 226 ft | 0 kts | 67° |
| 2026-04-20 17:48 | 42.92629 | -71.43820 | 227 ft | 21 kts | 70° |
| 2026-04-20 17:49 | 42.92706 | -71.43553 | 229 ft | 29 kts | 97° |
| 2026-04-20 17:49 | 42.92684 | -71.43322 | 230 ft | 24 kts | 70° |
| 2026-04-20 17:49 | 42.92582 | -71.43184 | 230 ft | 22 kts | 154° |
| 2026-04-20 17:49 | 42.92436 | -71.43098 | 231 ft | 22 kts | 155° |
| 2026-04-20 17:50 | 42.92297 | -71.43011 | 233 ft | 21 kts | 155° |
| 2026-04-20 17:50 | 42.92164 | -71.42934 | 237 ft | 19 kts | 160° |
| 2026-04-20 17:50 | 42.92020 | -71.42919 | 243 ft | 20 kts | 179° |
| 2026-04-20 17:50 | 42.91891 | -71.42898 | 247 ft | 15 kts | 150° |
| 2026-04-20 17:51 | 42.91874 | -71.42834 | 249 ft | 0 kts | 75° |
| 2026-04-20 17:51 | 42.91889 | -71.42771 | 249 ft | 19 kts | 70° |
| 2026-04-20 17:51 | 42.91994 | -71.42671 | 247 ft | 24 kts | 321° |
| 2026-04-20 17:52 | 42.92115 | -71.42734 | 242 ft | 7 kts | 334° |
| 2026-04-20 17:52 | 42.92145 | -71.42754 | 240 ft | 22 kts | 334° |
| 2026-04-20 17:52 | 42.92515 | -71.42986 | 231 ft | 91 kts | 336° |
| 2026-04-20 17:52 | 42.93284 | -71.43433 | 235 ft | 144 kts | 338° |
| 2026-04-20 17:53 | 42.94214 | -71.43941 | 766 ft | 143 kts | 334° |
| 2026-04-20 17:53 | 42.95119 | -71.44440 | 1395 ft | 142 kts | 334° |
| 2026-04-20 17:53 | 42.96080 | -71.44890 | 1901 ft | 152 kts | 339° |
| 2026-04-20 17:53 | 42.97139 | -71.45290 | 2248 ft | 166 kts | 339° |
| 2026-04-20 17:54 | 42.98307 | -71.45729 | 2595 ft | 183 kts | 348° |
| 2026-04-20 17:54 | 42.99641 | -71.45390 | 2877 ft | 213 kts | 22° |
| 2026-04-20 17:54 | 43.00758 | -71.43903 | 3145 ft | 243 kts | 58° |
| 2026-04-20 17:54 | 43.01229 | -71.41602 | 3481 ft | 267 kts | 86° |
| 2026-04-20 17:55 | 43.01342 | -71.39030 | 4063 ft | 278 kts | 83° |
| 2026-04-20 17:55 | 43.01612 | -71.36401 | 4890 ft | 281 kts | 78° |
| 2026-04-20 17:55 | 43.02036 | -71.33796 | 5743 ft | 283 kts | 75° |
| 2026-04-20 17:55 | 43.02552 | -71.31219 | 6535 ft | 287 kts | 72° |
| 2026-04-20 17:56 | 43.03129 | -71.28614 | 7378 ft | 290 kts | 71° |
| 2026-04-20 17:56 | 43.03734 | -71.25989 | 8170 ft | 294 kts | 71° |
| 2026-04-20 17:56 | 43.04354 | -71.23338 | 9036 ft | 296 kts | 71° |
| 2026-04-20 17:56 | 43.04985 | -71.20636 | 9873 ft | 298 kts | 71° |
| 2026-04-20 17:57 | 43.05618 | -71.17923 | 10552 ft | 305 kts | 72° |
| 2026-04-20 17:57 | 43.06202 | -71.15063 | 10921 ft | 322 kts | 76° |
| 2026-04-20 17:57 | 43.06746 | -71.12000 | 11252 ft | 340 kts | 77° |
| 2026-04-20 17:57 | 43.07304 | -71.08776 | 11603 ft | 356 kts | 77° |
| 2026-04-20 17:58 | 43.07869 | -71.05495 | 12188 ft | 362 kts | 77° |
| 2026-04-20 17:58 | 43.08324 | -71.02093 | 12843 ft | 366 kts | 89° |
| 2026-04-20 17:58 | 43.07871 | -70.98698 | 13428 ft | 365 kts | 117° |
| 2026-04-20 17:58 | 43.06447 | -70.95917 | 14054 ft | 359 kts | 141° |
| 2026-04-20 17:59 | 43.04508 | -70.93733 | 14684 ft | 359 kts | 147° |
| 2026-04-20 17:59 | 43.02559 | -70.91642 | 15252 ft | 365 kts | 146° |
| 2026-04-20 17:59 | 43.00443 | -70.89712 | 15826 ft | 361 kts | 161° |
| 2026-04-20 17:59 | 42.98049 | -70.88923 | 16450 ft | 350 kts | 183° |
| 2026-04-20 18:00 | 42.95694 | -70.89355 | 17050 ft | 342 kts | 202° |
| 2026-04-20 18:00 | 42.93480 | -70.90434 | 17633 ft | 343 kts | 204° |
| 2026-04-20 18:00 | 42.91219 | -70.91574 | 18184 ft | 347 kts | 204° |
| 2026-04-20 18:00 | 42.88933 | -70.92711 | 18742 ft | 350 kts | 204° |
| 2026-04-20 18:01 | 42.86652 | -70.93829 | 19257 ft | 353 kts | 204° |
| 2026-04-20 18:01 | 42.84306 | -70.94974 | 19810 ft | 356 kts | 204° |
| 2026-04-20 18:01 | 42.82004 | -70.96100 | 20361 ft | 357 kts | 204° |
| 2026-04-20 18:01 | 42.79659 | -70.97243 | 20925 ft | 359 kts | 204° |
| 2026-04-20 18:02 | 42.77317 | -70.98386 | 21437 ft | 361 kts | 204° |
| 2026-04-20 18:02 | 42.74925 | -70.99552 | 21968 ft | 362 kts | 204° |
| 2026-04-20 18:02 | 42.72622 | -71.00676 | 22410 ft | 365 kts | 204° |
| 2026-04-20 18:02 | 42.70190 | -71.01858 | 22881 ft | 367 kts | 204° |
| 2026-04-20 18:03 | 42.67771 | -71.03035 | 23386 ft | 368 kts | 204° |
| 2026-04-20 18:03 | 42.65345 | -71.04215 | 23858 ft | 369 kts | 204° |
| 2026-04-20 18:03 | 42.62941 | -71.05382 | 24318 ft | 370 kts | 204° |
| 2026-04-20 18:03 | 42.60497 | -71.06569 | 24679 ft | 373 kts | 204° |
| 2026-04-20 18:04 | 42.58059 | -71.07751 | 25023 ft | 375 kts | 204° |
| 2026-04-20 18:04 | 42.55581 | -71.08949 | 25464 ft | 375 kts | 204° |
| 2026-04-20 18:04 | 42.53137 | -71.10135 | 25866 ft | 376 kts | 204° |
| 2026-04-20 18:04 | 42.50675 | -71.11325 | 26179 ft | 378 kts | 203° |
| 2026-04-20 18:05 | 42.45658 | -71.13751 | 26686 ft | 386 kts | 205° |
| 2026-04-20 18:05 | 42.43174 | -71.15179 | 26835 ft | 389 kts | 209° |
| 2026-04-20 18:05 | 42.40799 | -71.16897 | 27171 ft | 388 kts | 213° |
| 2026-04-20 18:06 | 42.38554 | -71.18867 | 27460 ft | 388 kts | 218° |
| 2026-04-20 18:06 | 42.36351 | -71.21019 | 27681 ft | 391 kts | 219° |
| 2026-04-20 18:06 | 42.34145 | -71.23199 | 27923 ft | 393 kts | 218° |
| 2026-04-20 18:06 | 42.31935 | -71.25392 | 28206 ft | 395 kts | 218° |
| 2026-04-20 18:07 | 42.29710 | -71.27591 | 28451 ft | 397 kts | 219° |
| 2026-04-20 18:07 | 42.27474 | -71.29802 | 28681 ft | 398 kts | 218° |
| 2026-04-20 18:07 | 42.25238 | -71.32011 | 28904 ft | 400 kts | 219° |
| 2026-04-20 18:07 | 42.22994 | -71.34229 | 29175 ft | 400 kts | 219° |
| 2026-04-20 18:08 | 42.20767 | -71.36432 | 29472 ft | 399 kts | 218° |
| 2026-04-20 18:08 | 42.18528 | -71.38636 | 29760 ft | 399 kts | 218° |
| 2026-04-20 18:08 | 42.16293 | -71.40840 | 30058 ft | 398 kts | 219° |
| 2026-04-20 18:08 | 42.14050 | -71.43047 | 30357 ft | 398 kts | 218° |
| 2026-04-20 18:09 | 42.11837 | -71.45230 | 30601 ft | 399 kts | 218° |
| 2026-04-20 18:09 | 42.09597 | -71.47430 | 30874 ft | 399 kts | 218° |
| 2026-04-20 18:09 | 42.07361 | -71.49628 | 31179 ft | 397 kts | 218° |
| 2026-04-20 18:09 | 42.05132 | -71.51814 | 31425 ft | 398 kts | 217° |
| 2026-04-20 18:10 | 42.02908 | -71.54000 | 31652 ft | 399 kts | 218° |
| 2026-04-20 18:10 | 42.00656 | -71.56199 | 31912 ft | 398 kts | 217° |
| 2026-04-20 18:10 | 41.98418 | -71.58393 | 32168 ft | 397 kts | 217° |
| 2026-04-20 18:10 | 41.96182 | -71.60580 | 32387 ft | 398 kts | 217° |
| 2026-04-20 18:11 | 41.93937 | -71.62774 | 32628 ft | 398 kts | 216° |
| 2026-04-20 18:11 | 41.91713 | -71.64947 | 32887 ft | 397 kts | 216° |
| 2026-04-20 18:11 | 41.89469 | -71.67133 | 33064 ft | 397 kts | 216° |
| 2026-04-20 18:11 | 41.87250 | -71.69288 | 33258 ft | 399 kts | 216° |
| 2026-04-20 18:12 | 41.84990 | -71.71488 | 33504 ft | 399 kts | 216° |
| 2026-04-20 18:12 | 41.82767 | -71.73648 | 33820 ft | 397 kts | 216° |
| 2026-04-20 18:12 | 41.80544 | -71.75800 | 34132 ft | 396 kts | 216° |
| 2026-04-20 18:12 | 41.78317 | -71.77962 | 34426 ft | 395 kts | 217° |
| 2026-04-20 18:13 | 41.76086 | -71.80127 | 34679 ft | 395 kts | 216° |
| 2026-04-20 18:13 | 41.73862 | -71.82278 | 34899 ft | 396 kts | 217° |
| 2026-04-20 18:13 | 41.71630 | -71.84443 | 35121 ft | 396 kts | 217° |
| 2026-04-20 18:13 | 41.69400 | -71.86603 | 35362 ft | 396 kts | 217° |
| 2026-04-20 18:14 | 41.67149 | -71.88779 | 35555 ft | 397 kts | 217° |
| 2026-04-20 18:14 | 41.64939 | -71.90915 | 35694 ft | 398 kts | 217° |
| 2026-04-20 18:14 | 41.62695 | -71.93078 | 35827 ft | 400 kts | 218° |
| 2026-04-20 18:14 | 41.60427 | -71.95262 | 36026 ft | 400 kts | 218° |
| 2026-04-20 18:15 | 41.58165 | -71.97462 | 36154 ft | 401 kts | 219° |
| 2026-04-20 18:15 | 41.55994 | -71.99760 | 36159 ft | 401 kts | 221° |
| 2026-04-20 18:15 | 41.51877 | -72.04761 | 36171 ft | 400 kts | 226° |
| 2026-04-20 18:16 | 41.47859 | -72.09937 | 36163 ft | 401 kts | 225° |
| 2026-04-20 18:16 | 41.43859 | -72.15078 | 36176 ft | 402 kts | 225° |
| 2026-04-20 18:17 | 41.39851 | -72.20227 | 36173 ft | 402 kts | 225° |
| 2026-04-20 18:17 | 41.35814 | -72.25401 | 36178 ft | 402 kts | 225° |
| 2026-04-20 18:18 | 41.31778 | -72.30573 | 36177 ft | 403 kts | 225° |
| 2026-04-20 18:18 | 41.27745 | -72.35738 | 36182 ft | 403 kts | 225° |
| 2026-04-20 18:19 | 41.23724 | -72.40874 | 36184 ft | 403 kts | 225° |
| 2026-04-20 18:19 | 41.19644 | -72.46075 | 36181 ft | 404 kts | 225° |
| 2026-04-20 18:20 | 41.15594 | -72.51222 | 36181 ft | 405 kts | 225° |
| 2026-04-20 18:20 | 41.11508 | -72.56409 | 36184 ft | 406 kts | 225° |
| 2026-04-20 18:21 | 41.07440 | -72.61568 | 36183 ft | 407 kts | 225° |
| 2026-04-20 18:21 | 41.03334 | -72.66766 | 36188 ft | 406 kts | 225° |
| 2026-04-20 18:22 | 40.99255 | -72.71917 | 36185 ft | 408 kts | 224° |
| 2026-04-20 18:22 | 40.95047 | -72.76915 | 36186 ft | 408 kts | 221° |
| 2026-04-20 18:23 | 40.90485 | -72.81361 | 36191 ft | 410 kts | 216° |
| 2026-04-20 18:23 | 40.85576 | -72.85234 | 36187 ft | 412 kts | 212° |
| 2026-04-20 18:24 | 40.80584 | -72.88908 | 36195 ft | 412 kts | 212° |
| 2026-04-20 18:24 | 40.75550 | -72.92610 | 36185 ft | 412 kts | 212° |
| 2026-04-20 18:25 | 40.70530 | -72.96285 | 36183 ft | 413 kts | 212° |
| 2026-04-20 18:25 | 40.65527 | -72.99940 | 36191 ft | 413 kts | 212° |
| 2026-04-20 18:26 | 40.60512 | -73.03596 | 36183 ft | 413 kts | 212° |
| 2026-04-20 18:26 | 40.55453 | -73.07275 | 36186 ft | 414 kts | 212° |
| 2026-04-20 18:27 | 40.50428 | -73.10929 | 36187 ft | 414 kts | 212° |
| 2026-04-20 18:27 | 40.45387 | -73.14583 | 36185 ft | 414 kts | 212° |
| 2026-04-20 18:28 | 40.40339 | -73.18235 | 36180 ft | 415 kts | 212° |
| 2026-04-20 18:28 | 40.35249 | -73.21912 | 36177 ft | 415 kts | 212° |
| 2026-04-20 18:29 | 40.30215 | -73.25542 | 36174 ft | 415 kts | 212° |
| 2026-04-20 18:29 | 40.25162 | -73.29182 | 36179 ft | 415 kts | 212° |
| 2026-04-20 18:30 | 40.20079 | -73.32834 | 36182 ft | 416 kts | 212° |
| 2026-04-20 18:30 | 40.15016 | -73.36468 | 36173 ft | 417 kts | 212° |
| 2026-04-20 18:31 | 40.09918 | -73.40120 | 36184 ft | 417 kts | 213° |
| 2026-04-20 18:31 | 40.04845 | -73.43748 | 36176 ft | 416 kts | 213° |
| 2026-04-20 18:32 | 39.99748 | -73.47383 | 36187 ft | 416 kts | 213° |
| 2026-04-20 18:32 | 39.94819 | -73.51266 | 36176 ft | 414 kts | 218° |
| 2026-04-20 18:33 | 39.90241 | -73.55818 | 36178 ft | 413 kts | 224° |
| 2026-04-20 18:33 | 39.86087 | -73.60969 | 36187 ft | 411 kts | 229° |
| 2026-04-20 18:34 | 39.82395 | -73.66581 | 36179 ft | 412 kts | 232° |
| 2026-04-20 18:34 | 39.78743 | -73.72369 | 36185 ft | 411 kts | 232° |
| 2026-04-20 18:35 | 39.75116 | -73.78092 | 36177 ft | 411 kts | 232° |
| 2026-04-20 18:35 | 39.71492 | -73.83809 | 36083 ft | 408 kts | 232° |
| 2026-04-20 18:36 | 39.69691 | -73.86649 | 35534 ft | 409 kts | 232° |
| 2026-04-20 18:36 | 39.67884 | -73.89496 | 34668 ft | 415 kts | 232° |
| 2026-04-20 18:36 | 39.66045 | -73.92393 | 33810 ft | 420 kts | 232° |
| 2026-04-20 18:36 | 39.64202 | -73.95290 | 32967 ft | 423 kts | 232° |
| 2026-04-20 18:37 | 39.62307 | -73.98258 | 32398 ft | 426 kts | 232° |
| 2026-04-20 18:37 | 39.60417 | -74.01217 | 31908 ft | 424 kts | 233° |
| 2026-04-20 18:37 | 39.58544 | -74.04149 | 31448 ft | 421 kts | 233° |
| 2026-04-20 18:37 | 39.56699 | -74.07037 | 31053 ft | 415 kts | 233° |
| 2026-04-20 18:38 | 39.54898 | -74.09875 | 30697 ft | 408 kts | 236° |
| 2026-04-20 18:38 | 39.53470 | -74.12999 | 30208 ft | 401 kts | 249° |
| 2026-04-20 18:38 | 39.52697 | -74.16428 | 29612 ft | 398 kts | 260° |
| 2026-04-20 18:38 | 39.52536 | -74.19985 | 28916 ft | 399 kts | 269° |
| 2026-04-20 18:39 | 39.52591 | -74.23556 | 28255 ft | 398 kts | 269° |
| 2026-04-20 18:39 | 39.52644 | -74.27095 | 27631 ft | 394 kts | 269° |
| 2026-04-20 18:39 | 39.52702 | -74.30621 | 27005 ft | 390 kts | 269° |
| 2026-04-20 18:39 | 39.52760 | -74.34119 | 26337 ft | 387 kts | 269° |
| 2026-04-20 18:40 | 39.52818 | -74.37574 | 25687 ft | 384 kts | 269° |
| 2026-04-20 18:40 | 39.52878 | -74.40985 | 25106 ft | 380 kts | 269° |
| 2026-04-20 18:40 | 39.52937 | -74.44362 | 24514 ft | 376 kts | 269° |
| 2026-04-20 18:40 | 39.52994 | -74.47751 | 23877 ft | 373 kts | 269° |
| 2026-04-20 18:41 | 39.53043 | -74.50748 | 23285 ft | 371 kts | 269° |
| 2026-04-20 18:41 | 39.53098 | -74.54079 | 22621 ft | 370 kts | 269° |
| 2026-04-20 18:41 | 39.53151 | -74.57360 | 21966 ft | 368 kts | 270° |
| 2026-04-20 18:41 | 39.53205 | -74.60635 | 21366 ft | 365 kts | 270° |
| 2026-04-20 18:42 | 39.53257 | -74.63913 | 20747 ft | 363 kts | 270° |
| 2026-04-20 18:42 | 39.53308 | -74.67149 | 20158 ft | 361 kts | 270° |
| 2026-04-20 18:42 | 39.53359 | -74.70403 | 19583 ft | 358 kts | 270° |
| 2026-04-20 18:42 | 39.53408 | -74.73591 | 19026 ft | 356 kts | 270° |
| 2026-04-20 18:43 | 39.53458 | -74.76781 | 18434 ft | 354 kts | 270° |
| 2026-04-20 18:43 | 39.53508 | -74.79920 | 17844 ft | 352 kts | 270° |
| 2026-04-20 18:43 | 39.53560 | -74.83069 | 17245 ft | 351 kts | 270° |
| 2026-04-20 18:43 | 39.53610 | -74.86257 | 16647 ft | 350 kts | 270° |
| 2026-04-20 18:44 | 39.53657 | -74.89386 | 16057 ft | 349 kts | 270° |
| 2026-04-20 18:44 | 39.53705 | -74.92487 | 15511 ft | 347 kts | 271° |
| 2026-04-20 18:44 | 39.54140 | -74.95553 | 14865 ft | 350 kts | 290° |
| 2026-04-20 18:44 | 39.55479 | -74.98167 | 14273 ft | 357 kts | 311° |
| 2026-04-20 18:45 | 39.57458 | -75.00166 | 13754 ft | 358 kts | 321° |
| 2026-04-20 18:45 | 39.59479 | -75.02016 | 13250 ft | 355 kts | 321° |
| 2026-04-20 18:45 | 39.61467 | -75.03854 | 12743 ft | 352 kts | 321° |
| 2026-04-20 18:45 | 39.63450 | -75.05699 | 12255 ft | 349 kts | 321° |
| 2026-04-20 18:46 | 39.65411 | -75.07515 | 11809 ft | 346 kts | 323° |
| 2026-04-20 18:46 | 39.67607 | -75.08768 | 11451 ft | 346 kts | 346° |
| 2026-04-20 18:46 | 39.69997 | -75.08817 | 11122 ft | 346 kts | 3° |
| 2026-04-20 18:46 | 39.72364 | -75.08224 | 10796 ft | 344 kts | 17° |
| 2026-04-20 18:47 | 39.74351 | -75.06535 | 10480 ft | 346 kts | 43° |
| 2026-04-20 18:47 | 39.75944 | -75.04225 | 10173 ft | 341 kts | 47° |
| 2026-04-20 18:47 | 39.77473 | -75.01923 | 9859 ft | 336 kts | 46° |
| 2026-04-20 18:47 | 39.78996 | -74.99677 | 9490 ft | 327 kts | 46° |
| 2026-04-20 18:48 | 39.80501 | -74.97502 | 8909 ft | 319 kts | 45° |
| 2026-04-20 18:48 | 39.81966 | -74.95405 | 8406 ft | 308 kts | 45° |
| 2026-04-20 18:48 | 39.83271 | -74.93261 | 7896 ft | 302 kts | 58° |
| 2026-04-20 18:48 | 39.84056 | -74.90806 | 7565 ft | 290 kts | 71° |
| 2026-04-20 18:49 | 39.84571 | -74.88319 | 7243 ft | 279 kts | 73° |
| 2026-04-20 18:49 | 39.85041 | -74.85899 | 6885 ft | 271 kts | 73° |
| 2026-04-20 18:49 | 39.85509 | -74.83535 | 6173 ft | 277 kts | 72° |
| 2026-04-20 18:49 | 39.85995 | -74.81123 | 5552 ft | 277 kts | 72° |
| 2026-04-20 18:50 | 39.86489 | -74.78687 | 5000 ft | 274 kts | 71° |
| 2026-04-20 18:50 | 39.86968 | -74.76331 | 4469 ft | 271 kts | 71° |
| 2026-04-20 18:50 | 39.87451 | -74.73961 | 3925 ft | 269 kts | 71° |
| 2026-04-20 18:50 | 39.87948 | -74.71674 | 3615 ft | 263 kts | 64° |
| 2026-04-20 18:51 | 39.88999 | -74.69810 | 3459 ft | 254 kts | 30° |
| 2026-04-20 18:51 | 39.90631 | -74.69129 | 3337 ft | 245 kts | 358° |
| 2026-04-20 18:51 | 39.92277 | -74.69542 | 3210 ft | 240 kts | 334° |
| 2026-04-20 18:51 | 39.93627 | -74.70808 | 3079 ft | 239 kts | 311° |
| 2026-04-20 18:52 | 39.94433 | -74.72693 | 2949 ft | 242 kts | 287° |
| 2026-04-20 18:52 | 39.94537 | -74.74890 | 2823 ft | 246 kts | 266° |
| 2026-04-20 18:52 | 39.94313 | -74.77071 | 2699 ft | 245 kts | 266° |
| 2026-04-20 18:52 | 39.94089 | -74.79277 | 2570 ft | 244 kts | 266° |
| 2026-04-20 18:53 | 39.93874 | -74.81459 | 2444 ft | 244 kts | 266° |
| 2026-04-20 18:53 | 39.93660 | -74.83662 | 2316 ft | 243 kts | 266° |
| 2026-04-20 18:53 | 39.93451 | -74.85848 | 2188 ft | 243 kts | 266° |
| 2026-04-20 18:53 | 39.93244 | -74.88036 | 2078 ft | 242 kts | 267° |
| 2026-04-20 18:54 | 39.93226 | -74.90207 | 2072 ft | 239 kts | 277° |
| 2026-04-20 18:54 | 39.93236 | -74.92370 | 2069 ft | 241 kts | 269° |
| 2026-04-20 18:54 | 39.92997 | -74.94537 | 2066 ft | 239 kts | 263° |
| 2026-04-20 18:54 | 39.92661 | -74.96588 | 2063 ft | 228 kts | 262° |
| 2026-04-20 18:55 | 39.92292 | -74.98537 | 2060 ft | 216 kts | 260° |
| 2026-04-20 18:55 | 39.91920 | -75.00395 | 2060 ft | 205 kts | 261° |
| 2026-04-20 18:55 | 39.91562 | -75.02164 | 2060 ft | 197 kts | 261° |
| 2026-04-20 18:55 | 39.91221 | -75.03834 | 2062 ft | 186 kts | 261° |
| 2026-04-20 18:56 | 39.90905 | -75.05379 | 2125 ft | 166 kts | 261° |
| 2026-04-20 18:56 | 39.90625 | -75.06752 | 2083 ft | 148 kts | 263° |
| 2026-04-20 18:56 | 39.90377 | -75.07969 | 2038 ft | 131 kts | 264° |
| 2026-04-20 18:56 | 39.90151 | -75.09109 | 2045 ft | 129 kts | 264° |
| 2026-04-20 18:57 | 39.89928 | -75.10240 | 1896 ft | 129 kts | 263° |
| 2026-04-20 18:57 | 39.89704 | -75.11360 | 1729 ft | 128 kts | 263° |
| 2026-04-20 18:57 | 39.89479 | -75.12483 | 1558 ft | 128 kts | 264° |
| 2026-04-20 18:57 | 39.89252 | -75.13615 | 1387 ft | 128 kts | 263° |
| 2026-04-20 18:58 | 39.89028 | -75.14728 | 1218 ft | 127 kts | 263° |
| 2026-04-20 18:58 | 39.88804 | -75.15848 | 1042 ft | 127 kts | 262° |
| 2026-04-20 18:58 | 39.88582 | -75.16959 | 871 ft | 127 kts | 262° |
| 2026-04-20 18:58 | 39.88361 | -75.18063 | 698 ft | 127 kts | 262° |
| 2026-04-20 18:59 | 39.88139 | -75.19173 | 528 ft | 127 kts | 261° |
| 2026-04-20 18:59 | 39.87917 | -75.20287 | 358 ft | 127 kts | 261° |
| 2026-04-20 18:59 | 39.87697 | -75.21392 | 190 ft | 127 kts | 261° |
| 2026-04-20 18:59 | 39.87487 | -75.22495 | 36 ft | 126 kts | 259° |
| 2026-04-20 19:00 | 39.87301 | -75.23471 | 13 ft | 97 kts | 256° |
| 2026-04-20 19:00 | 39.87172 | -75.24082 | 13 ft | 47 kts | 255° |
| 2026-04-20 19:00 | 39.87174 | -75.24348 | 13 ft | 10 kts | 279° |
| 2026-04-20 19:00 | 39.87176 | -75.24367 | 14 ft | 0 kts | 278° |
| 2026-04-20 19:01 | 39.87197 | -75.24480 | 14 ft | 18 kts | 296° |
| 2026-04-20 19:02 | 39.87286 | -75.24496 | 14 ft | 15 kts | 63° |
| 2026-04-20 19:02 | 39.87318 | -75.24357 | 13 ft | 16 kts | 77° |
| 2026-04-20 19:02 | 39.87363 | -75.24229 | 13 ft | 13 kts | 26° |
| 2026-04-20 19:02 | 39.87455 | -75.24243 | 12 ft | 14 kts | 326° |
| 2026-04-20 19:03 | 39.87477 | -75.24314 | 12 ft | 5 kts | 277° |
| 2026-04-20 19:03 | 39.87478 | -75.24322 | 12 ft | 0 kts | 278° |